LLHALCLK

Guest
Details From LLHA - Haifa
To LCLK - Larnaca
Flight Number -
Tags generated
Created
Modified
Stats Distance 143 nm / 265 km
Max Altitude 1,000 ft / 305 m
Waypoints 3
Social Downloads 0
Likes 0
Share VATSIM

Download

Looking for another format? Having issues loading an existing format? Contact us
Advertisement - Login to hide

Notes

Basic altitude profile: - Ascent Rate: 750ft/min - Ascent Speed: 150kts - Cruise Altitude: 1000ft - Cruise Speed: 190kts - Descent Rate: 1000ft/min - Descent Speed: 180kts

Route

LLHA LITAN LCLK

ID Type Via Altitude Latitude Longitude Leg Dist Tot Dist Heading (true) Name
O LLHA APT - 0 ft / 0 m 32.81112˚ 35.04414˚ - 0 nm - Haifa
LITAN FIX - 1,000 ft / 305 m 33.58222˚ 34.63306˚ 50 nm 50 nm 336° / 336° -
O LCLK APT - 0 ft / 0 m 34.87512˚ 33.62483˚ 92 nm 143 nm 327° / 327° Larnaca

Altitude Profile

Advertisement - Login to hide

LLHA

Details ICAO LLHA (HFA)
Name Haifa
Region Israel
Timezone Asia/Jerusalem (UTC+2.0)
Stats Elevation 28 ft / 9 m (AMSL)
Location 32.811125° 35.044139°
Runways 1
Magnetic Variation 4.782° E

METAR

LLHA 161950Z VRB01KT CAVOK 14/10 Q1022

Decode

TAF

TAF LLHA 161711Z 1618/1718 09007KT CAVOK TEMPO 1700/1711 10015KT TEMPO 1711/1715 VRB04KT TX23/1712Z TN12/1704Z

Decode

Departure Runways

ID Width Length Bearing (true) Bearing (mag) Surface Threshold Offset Overrun Length
16 98 ft / 30 m 4,161 ft / 1,268 m 158.88° 154.10° Asphalt 164 ft / 50 m 0 ft / 0 m
34 98 ft / 30 m 4,161 ft / 1,268 m 338.88° 334.10° Asphalt 380 ft / 116 m 90 ft / 27 m

LCLK

Details ICAO LCLK (LCA)
Name Larnaca
Region Cyprus
Timezone Asia/Nicosia (UTC+2.0)
Stats Elevation 8 ft / 2 m (AMSL)
Location 34.875115° 33.624832°
Runways 1
Magnetic Variation 4.991° E

METAR

LCLK 162030Z 36004KT 9999 FEW025 BKN060 15/12 Q1022 NOSIG

Decode

TAF

TAF LCLK 161730Z 1618/1718 31006KT 9999 FEW020 SCT030 PROB30 1701/1705 5000 BR BECMG 1709/1712 17010KT BECMG 1716/1718 31006KT

Decode

Destination Runways

ID Width Length Bearing (true) Bearing (mag) Surface Threshold Offset Overrun Length
04 148 ft / 45 m 9,771 ft / 2,978 m 45.15° 40.16° Asphalt 0 ft / 0 m 210 ft / 64 m
22 148 ft / 45 m 9,771 ft / 2,978 m 225.17° 220.18° Asphalt 575 ft / 175 m 0 ft / 0 m

Approach Navaids

Runway Type Ident Frequency Range Bearing (true) Bearing (mag) Slope Elevation
22 Localiser ILC 110.30 MHz 18 nm / 33 km 225.17° 220.18° - 8 ft / 2 m (AMSL)
22 Glidescope ILC 110.30 MHz 10 nm / 19 km 225.16° 220.17° 2.75° 24 ft / 7 m (AMSL)
22 DME ILC 110.30 MHz 18 nm / 33 km - - - 20 ft / 6 m (AMSL)

Popular Alternatives